sensor_id;sensor_type;location;lat;lon;timestamp;pressure;altitude;pressure_sealevel;temperature;humidity
70343;BME280;57767;42.068;24.752;2023-08-12T00:00:46;99247.50;;;22.23;46.72
70343;BME280;57767;42.068;24.752;2023-08-12T00:01:48;99258.22;;;22.33;46.57
70343;BME280;57767;42.068;24.752;2023-08-12T00:02:50;99255.25;;;22.35;47.20
70343;BME280;57767;42.068;24.752;2023-08-12T00:03:53;99258.22;;;22.38;47.19
70343;BME280;57767;42.068;24.752;2023-08-12T00:04:55;99251.22;;;22.37;47.73
70343;BME280;57767;42.068;24.752;2023-08-12T00:05:58;99248.25;;;22.39;47.88
70343;BME280;57767;42.068;24.752;2023-08-12T00:07:02;99255.75;;;22.42;47.68
70343;BME280;57767;42.068;24.752;2023-08-12T00:08:04;99253.88;;;22.42;47.53
70343;BME280;57767;42.068;24.752;2023-08-12T00:09:05;99244.22;;;22.41;47.74
70343;BME280;57767;42.068;24.752;2023-08-12T00:10:11;99252.53;;;22.45;47.77
70343;BME280;57767;42.068;24.752;2023-08-12T00:11:14;99248.78;;;22.41;48.04
70343;BME280;57767;42.068;24.752;2023-08-12T00:12:17;99248.22;;;22.44;48.64
70343;BME280;57767;42.068;24.752;2023-08-12T00:13:19;99243.91;;;22.43;47.64
70343;BME280;57767;42.068;24.752;2023-08-12T00:14:22;99239.88;;;22.45;47.92
70343;BME280;57767;42.068;24.752;2023-08-12T00:15:24;99252.78;;;22.54;48.67
70343;BME280;57767;42.068;24.752;2023-08-12T00:16:25;99237.16;;;22.50;47.88
70343;BME280;57767;42.068;24.752;2023-08-12T00:17:27;99238.78;;;22.51;47.43
70343;BME280;57767;42.068;24.752;2023-08-12T00:18:29;99247.66;;;22.52;48.81
70343;BME280;57767;42.068;24.752;2023-08-12T00:19:31;99234.75;;;22.49;48.27
70343;BME280;57767;42.068;24.752;2023-08-12T00:20:33;99242.00;;;22.54;47.23
70343;BME280;57767;42.068;24.752;2023-08-12T00:21:35;99239.81;;;22.56;46.60
70343;BME280;57767;42.068;24.752;2023-08-12T00:22:37;99240.41;;;22.52;46.46
70343;BME280;57767;42.068;24.752;2023-08-12T00:23:42;99242.25;;;22.57;46.69
70343;BME280;57767;42.068;24.752;2023-08-12T00:24:45;99233.34;;;22.57;46.57
70343;BME280;57767;42.068;24.752;2023-08-12T00:25:51;99232.81;;;22.55;46.99
70343;BME280;57767;42.068;24.752;2023-08-12T00:26:53;99241.69;;;22.60;47.03
70343;BME280;57767;42.068;24.752;2023-08-12T00:27:55;99244.09;;;22.62;46.68
70343;BME280;57767;42.068;24.752;2023-08-12T00:28:57;99232.00;;;22.59;46.99
70343;BME280;57767;42.068;24.752;2023-08-12T00:29:58;99228.50;;;22.59;46.45
70343;BME280;57767;42.068;24.752;2023-08-12T00:31:00;99247.06;;;22.65;46.81
70343;BME280;57767;42.068;24.752;2023-08-12T00:32:02;99229.59;;;22.58;45.94
70343;BME280;57767;42.068;24.752;2023-08-12T00:33:04;99241.16;;;22.63;47.09
70343;BME280;57767;42.068;24.752;2023-08-12T00:34:06;99249.97;;;22.69;47.25
70343;BME280;57767;42.068;24.752;2023-08-12T00:35:08;99238.44;;;22.63;46.77
70343;BME280;57767;42.068;24.752;2023-08-12T00:36:10;99247.81;;;22.71;47.60
70343;BME280;57767;42.068;24.752;2023-08-12T00:37:12;99218.88;;;22.52;46.79
70343;BME280;57767;42.068;24.752;2023-08-12T00:38:14;99248.38;;;22.68;46.52
70343;BME280;57767;42.068;24.752;2023-08-12T00:39:16;99243.00;;;22.68;46.60
70343;BME280;57767;42.068;24.752;2023-08-12T00:40:18;99250.50;;;22.71;46.94
70343;BME280;57767;42.068;24.752;2023-08-12T00:41:19;99236.06;;;22.57;47.17
70343;BME280;57767;42.068;24.752;2023-08-12T00:42:21;99240.41;;;22.52;46.22
70343;BME280;57767;42.068;24.752;2023-08-12T00:43:23;99248.44;;;22.58;47.23
70343;BME280;57767;42.068;24.752;2023-08-12T00:44:25;99245.72;;;22.58;47.52
70343;BME280;57767;42.068;24.752;2023-08-12T00:45:27;99248.47;;;22.52;46.73
70343;BME280;57767;42.068;24.752;2023-08-12T00:46:29;99253.31;;;22.50;47.54
70343;BME280;57767;42.068;24.752;2023-08-12T00:47:31;99243.69;;;22.34;47.53
70343;BME280;57767;42.068;24.752;2023-08-12T00:48:33;99241.81;;;22.35;47.05
70343;BME280;57767;42.068;24.752;2023-08-12T00:49:35;99248.53;;;22.37;48.18
70343;BME280;57767;42.068;24.752;2023-08-12T00:50:39;99242.59;;;22.40;48.38
70343;BME280;57767;42.068;24.752;2023-08-12T00:51:42;99247.69;;;22.42;48.14
70343;BME280;57767;42.068;24.752;2023-08-12T00:52:45;99239.59;;;22.42;48.44
70343;BME280;57767;42.068;24.752;2023-08-12T00:53:47;99237.22;;;22.40;48.30
70343;BME280;57767;42.068;24.752;2023-08-12T00:54:49;99238.31;;;22.39;48.12
70343;BME280;57767;42.068;24.752;2023-08-12T00:55:51;99233.72;;;22.35;48.48
70343;BME280;57767;42.068;24.752;2023-08-12T00:56:53;99236.69;;;22.38;47.76
70343;BME280;57767;42.068;24.752;2023-08-12T00:57:56;99224.31;;;22.32;47.77
70343;BME280;57767;42.068;24.752;2023-08-12T00:59:00;99235.34;;;22.36;48.65
70343;BME280;57767;42.068;24.752;2023-08-12T01:00:03;99233.47;;;22.36;49.48
70343;BME280;57767;42.068;24.752;2023-08-12T01:01:06;99235.34;;;22.31;48.51
70343;BME280;57767;42.068;24.752;2023-08-12T01:02:08;99229.69;;;22.32;48.15
70343;BME280;57767;42.068;24.752;2023-08-12T01:03:10;99228.94;;;22.27;48.73
70343;BME280;57767;42.068;24.752;2023-08-12T01:04:13;99222.75;;;22.26;48.91
70343;BME280;57767;42.068;24.752;2023-08-12T01:05:15;99225.19;;;22.23;48.48
70343;BME280;57767;42.068;24.752;2023-08-12T01:06:17;99230.25;;;22.29;47.96
70343;BME280;57767;42.068;24.752;2023-08-12T01:07:19;99224.59;;;22.36;47.89
70343;BME280;57767;42.068;24.752;2023-08-12T01:08:23;99236.41;;;22.40;47.75
70343;BME280;57767;42.068;24.752;2023-08-12T01:09:30;99228.06;;;22.41;47.89
70343;BME280;57767;42.068;24.752;2023-08-12T01:10:35;99224.28;;;22.42;47.75
70343;BME280;57767;42.068;24.752;2023-08-12T01:13:23;99234.81;;;22.39;48.82
70343;BME280;57767;42.068;24.752;2023-08-12T01:15:37;99231.84;;;22.40;47.06
70343;BME280;57767;42.068;24.752;2023-08-12T01:16:43;99229.44;;;22.34;47.49
70343;BME280;57767;42.068;24.752;2023-08-12T01:17:46;99222.44;;;22.33;49.13
70343;BME280;57767;42.068;24.752;2023-08-12T01:18:53;99232.91;;;22.39;49.34
70343;BME280;57767;42.068;24.752;2023-08-12T01:19:56;99219.47;;;22.39;47.58
70343;BME280;57767;42.068;24.752;2023-08-12T01:20:59;99230.72;;;22.46;47.62
70343;BME280;57767;42.068;24.752;2023-08-12T01:22:02;99221.09;;;22.40;47.88
70343;BME280;57767;42.068;24.752;2023-08-12T01:23:16;99228.56;;;22.48;49.34
70343;BME280;57767;42.068;24.752;2023-08-12T01:24:21;99226.94;;;22.47;48.12
70343;BME280;57767;42.068;24.752;2023-08-12T01:25:26;99225.34;;;22.46;46.81
70343;BME280;57767;42.068;24.752;2023-08-12T01:26:27;99231.78;;;22.50;47.16
70343;BME280;57767;42.068;24.752;2023-08-12T01:27:29;99226.94;;;22.52;46.73
70343;BME280;57767;42.068;24.752;2023-08-12T01:28:31;99217.25;;;22.46;47.31
70343;BME280;57767;42.068;24.752;2023-08-12T01:29:34;99229.06;;;22.56;46.99
70343;BME280;57767;42.068;24.752;2023-08-12T01:30:56;99229.59;;;22.58;46.17
70343;BME280;57767;42.068;24.752;2023-08-12T01:32:11;99235.22;;;22.61;46.10
70343;BME280;57767;42.068;24.752;2023-08-12T01:33:23;99228.50;;;22.59;46.10
70343;BME280;57767;42.068;24.752;2023-08-12T01:35:44;99234.97;;;22.63;45.92
70343;BME280;57767;42.068;24.752;2023-08-12T01:36:55;99237.13;;;22.61;45.41
70343;BME280;57767;42.068;24.752;2023-08-12T01:37:59;99234.97;;;22.58;45.39
70343;BME280;57767;42.068;24.752;2023-08-12T01:39:01;99230.72;;;22.51;45.44
70343;BME280;57767;42.068;24.752;2023-08-12T01:40:06;99236.84;;;22.57;45.71
70343;BME280;57767;42.068;24.752;2023-08-12T01:41:12;99226.94;;;22.47;45.58
70343;BME280;57767;42.068;24.752;2023-08-12T01:42:16;99239.88;;;22.50;45.94
70343;BME280;57767;42.068;24.752;2023-08-12T01:43:19;99233.41;;;22.46;46.33
70343;BME280;57767;42.068;24.752;2023-08-12T01:44:21;99239.34;;;22.43;46.01
70343;BME280;57767;42.068;24.752;2023-08-12T01:45:23;99238.31;;;22.39;47.56
70343;BME280;57767;42.068;24.752;2023-08-12T01:46:25;99242.59;;;22.40;47.67
70343;BME280;57767;42.068;24.752;2023-08-12T01:47:30;99236.41;;;22.40;47.43
70343;BME280;57767;42.068;24.752;2023-08-12T01:48:32;99238.84;;;22.41;47.32
70343;BME280;57767;42.068;24.752;2023-08-12T01:49:34;99233.47;;;22.36;47.28
70343;BME280;57767;42.068;24.752;2023-08-12T01:50:35;99230.25;;;22.29;47.94
70343;BME280;57767;42.068;24.752;2023-08-12T01:51:37;99238.31;;;22.34;48.02
70343;BME280;57767;42.068;24.752;2023-08-12T01:52:39;99231.06;;;22.30;48.74
70343;BME280;57767;42.068;24.752;2023-08-12T01:53:41;99241.00;;;22.29;48.27
70343;BME280;57767;42.068;24.752;2023-08-12T01:54:43;99239.38;;;22.33;47.84
70343;BME280;57767;42.068;24.752;2023-08-12T01:55:45;99240.47;;;22.32;47.30
70343;BME280;57767;42.068;24.752;2023-08-12T01:56:47;99212.03;;;22.16;47.08
70343;BME280;57767;42.068;24.752;2023-08-12T01:57:49;99233.47;;;22.31;46.92
70343;BME280;57767;42.068;24.752;2023-08-12T01:58:51;99228.09;;;22.31;46.78
70343;BME280;57767;42.068;24.752;2023-08-12T01:59:53;99204.47;;;22.18;46.79
70343;BME280;57767;42.068;24.752;2023-08-12T02:00:54;99231.84;;;22.30;46.80
70343;BME280;57767;42.068;24.752;2023-08-12T02:01:56;99230.50;;;22.33;46.86
70343;BME280;57767;42.068;24.752;2023-08-12T02:02:58;99233.72;;;22.35;46.75
70343;BME280;57767;42.068;24.752;2023-08-12T02:04:00;99234.00;;;22.33;46.72
70343;BME280;57767;42.068;24.752;2023-08-12T02:05:02;99230.50;;;22.33;46.45
70343;BME280;57767;42.068;24.752;2023-08-12T02:06:04;99235.63;;;22.29;46.63
70343;BME280;57767;42.068;24.752;2023-08-12T02:07:06;99227.84;;;22.28;46.73
70343;BME280;57767;42.068;24.752;2023-08-12T02:08:08;99220.06;;;22.21;46.73
70343;BME280;57767;42.068;24.752;2023-08-12T02:09:09;99232.44;;;22.27;46.96
70343;BME280;57767;42.068;24.752;2023-08-12T02:10:11;99232.97;;;22.24;46.48
70343;BME280;57767;42.068;24.752;2023-08-12T02:11:15;99228.41;;;22.25;46.70
70343;BME280;57767;42.068;24.752;2023-08-12T02:12:17;99224.38;;;22.22;46.79
70343;BME280;57767;42.068;24.752;2023-08-12T02:13:19;99231.38;;;22.23;46.89
70343;BME280;57767;42.068;24.752;2023-08-12T02:14:21;99231.63;;;22.22;46.40
70343;BME280;57767;42.068;24.752;2023-08-12T02:15:22;99235.66;;;22.19;46.62
70343;BME280;57767;42.068;24.752;2023-08-12T02:16:24;99234.31;;;22.22;46.68
70343;BME280;57767;42.068;24.752;2023-08-12T02:17:26;99223.28;;;22.18;46.64
70343;BME280;57767;42.068;24.752;2023-08-12T02:18:28;99233.25;;;22.23;46.83
70343;BME280;57767;42.068;24.752;2023-08-12T02:19:30;99227.88;;;22.17;46.59
70343;BME280;57767;42.068;24.752;2023-08-12T02:20:31;99221.69;;;22.17;46.49
70343;BME280;57767;42.068;24.752;2023-08-12T02:21:36;99228.66;;;22.23;46.39
70343;BME280;57767;42.068;24.752;2023-08-12T02:22:38;99222.78;;;22.16;46.60
70343;BME280;57767;42.068;24.752;2023-08-12T02:23:40;99231.38;;;22.23;46.63
70343;BME280;57767;42.068;24.752;2023-08-12T02:24:41;99233.78;;;22.25;46.55
70343;BME280;57767;42.068;24.752;2023-08-12T02:25:43;99227.59;;;22.19;46.44
70343;BME280;57767;42.068;24.752;2023-08-12T02:26:46;99235.94;;;22.23;47.06
70343;BME280;57767;42.068;24.752;2023-08-12T02:27:48;99234.59;;;22.25;46.79
70343;BME280;57767;42.068;24.752;2023-08-12T02:28:49;99231.09;;;22.20;46.28
70343;BME280;57767;42.068;24.752;2023-08-12T02:29:51;99229.25;;;22.15;46.66
70343;BME280;57767;42.068;24.752;2023-08-12T02:30:53;99235.66;;;22.19;46.73
70343;BME280;57767;42.068;24.752;2023-08-12T02:31:55;99239.19;;;22.14;47.08
70343;BME280;57767;42.068;24.752;2023-08-12T02:32:57;99229.78;;;22.12;46.84
70343;BME280;57767;42.068;24.752;2023-08-12T02:33:59;99235.16;;;22.12;46.88
70343;BME280;57767;42.068;24.752;2023-08-12T02:35:00;99235.72;;;22.09;46.59
70343;BME280;57767;42.068;24.752;2023-08-12T02:36:02;99231.69;;;22.06;46.52
70343;BME280;57767;42.068;24.752;2023-08-12T02:37:04;99233.03;;;22.09;46.44
70343;BME280;57767;42.068;24.752;2023-08-12T02:38:06;99230.31;;;22.09;46.77
70343;BME280;57767;42.068;24.752;2023-08-12T02:39:08;99235.44;;;22.05;46.71
70343;BME280;57767;42.068;24.752;2023-08-12T02:40:10;99228.22;;;22.01;46.69
70343;BME280;57767;42.068;24.752;2023-08-12T02:41:12;99235.44;;;22.05;47.08
70343;BME280;57767;42.068;24.752;2023-08-12T02:42:14;99202.41;;;21.85;46.76
70343;BME280;57767;42.068;24.752;2023-08-12T02:43:16;99240.81;;;22.05;46.81
70343;BME280;57767;42.068;24.752;2023-08-12T02:44:18;99230.38;;;21.99;47.11
70343;BME280;57767;42.068;24.752;2023-08-12T02:45:20;99243.50;;;22.05;46.84
70343;BME280;57767;42.068;24.752;2023-08-12T02:46:22;99234.94;;;22.03;46.98
70343;BME280;57767;42.068;24.752;2023-08-12T02:47:24;99248.09;;;22.05;46.76
70343;BME280;57767;42.068;24.752;2023-08-12T02:48:25;99242.19;;;22.03;46.82
70343;BME280;57767;42.068;24.752;2023-08-12T02:49:27;99246.22;;;22.00;46.76
70343;BME280;57767;42.068;24.752;2023-08-12T02:50:29;99250.78;;;22.05;46.80
70343;BME280;57767;42.068;24.752;2023-08-12T02:51:31;99247.56;;;22.03;47.00
70343;BME280;57767;42.068;24.752;2023-08-12T02:52:33;99253.47;;;22.05;46.46
70343;BME280;57767;42.068;24.752;2023-08-12T02:53:34;99256.69;;;22.07;46.89
70343;BME280;57767;42.068;24.752;2023-08-12T02:54:36;99254.53;;;22.09;46.93
70343;BME280;57767;42.068;24.752;2023-08-12T02:55:38;99252.66;;;22.04;47.29
70343;BME280;57767;42.068;24.752;2023-08-12T02:56:40;99260.44;;;22.11;46.40
70343;BME280;57767;42.068;24.752;2023-08-12T02:57:41;99242.97;;;21.93;47.21
70343;BME280;57767;42.068;24.752;2023-08-12T02:58:43;99262.88;;;22.12;46.66
70343;BME280;57767;42.068;24.752;2023-08-12T02:59:45;99261.78;;;22.13;47.09
70343;BME280;57767;42.068;24.752;2023-08-12T03:00:47;99254.81;;;22.12;47.24
70343;BME280;57767;42.068;24.752;2023-08-12T03:01:48;99251.31;;;22.12;47.05
70343;BME280;57767;42.068;24.752;2023-08-12T03:02:50;99254.81;;;22.12;47.07
70343;BME280;57767;42.068;24.752;2023-08-12T03:03:52;99254.53;;;22.14;46.66
70343;BME280;57767;42.068;24.752;2023-08-12T03:04:54;99253.16;;;22.16;46.72
70343;BME280;57767;42.068;24.752;2023-08-12T03:05:56;99251.84;;;22.14;46.97
70343;BME280;57767;42.068;24.752;2023-08-12T03:06:59;99251.03;;;22.13;46.87
70343;BME280;57767;42.068;24.752;2023-08-12T03:08:01;99246.19;;;22.10;47.04
70343;BME280;57767;42.068;24.752;2023-08-12T03:09:05;99254.75;;;22.17;46.83
70343;BME280;57767;42.068;24.752;2023-08-12T03:10:07;99256.66;;;22.22;46.72
70343;BME280;57767;42.068;24.752;2023-08-12T03:11:09;99254.75;;;22.17;47.59
70343;BME280;57767;42.068;24.752;2023-08-12T03:12:11;99250.19;;;22.18;47.98
70343;BME280;57767;42.068;24.752;2023-08-12T03:13:13;99249.38;;;22.17;48.90
70343;BME280;57767;42.068;24.752;2023-08-12T03:14:15;99244.81;;;22.18;47.33
70343;BME280;57767;42.068;24.752;2023-08-12T03:15:17;99251.53;;;22.21;48.70
70343;BME280;57767;42.068;24.752;2023-08-12T03:16:18;99251.53;;;22.21;48.48
70343;BME280;57767;42.068;24.752;2023-08-12T03:17:20;99250.19;;;22.18;50.30
70343;BME280;57767;42.068;24.752;2023-08-12T03:18:22;99251.00;;;22.19;48.16
70343;BME280;57767;42.068;24.752;2023-08-12T03:19:24;99250.75;;;22.15;49.54
70343;BME280;57767;42.068;24.752;2023-08-12T03:20:26;99249.69;;;22.11;48.65
70343;BME280;57767;42.068;24.752;2023-08-12T03:21:27;99251.56;;;22.15;47.76
70343;BME280;57767;42.068;24.752;2023-08-12T03:22:29;99253.69;;;22.19;49.22
70343;BME280;57767;42.068;24.752;2023-08-12T03:23:31;99248.88;;;22.15;48.73
70343;BME280;57767;42.068;24.752;2023-08-12T03:24:33;99247.53;;;22.13;49.23
70343;BME280;57767;42.068;24.752;2023-08-12T03:25:35;99256.69;;;22.12;48.74
70343;BME280;57767;42.068;24.752;2023-08-12T03:26:37;99250.22;;;22.13;49.74
70343;BME280;57767;42.068;24.752;2023-08-12T03:27:38;99251.31;;;22.12;48.49
70343;BME280;57767;42.068;24.752;2023-08-12T03:28:40;99255.06;;;22.11;48.67
70343;BME280;57767;42.068;24.752;2023-08-12T03:29:42;99256.16;;;22.10;48.13
70343;BME280;57767;42.068;24.752;2023-08-12T03:30:52;99253.44;;;22.10;48.44
70343;BME280;57767;42.068;24.752;2023-08-12T03:31:55;99252.38;;;22.11;48.64
70343;BME280;57767;42.068;24.752;2023-08-12T03:32:56;99251.03;;;22.08;48.46
70343;BME280;57767;42.068;24.752;2023-08-12T03:33:58;99242.44;;;22.06;48.41
70343;BME280;57767;42.068;24.752;2023-08-12T03:35:00;99257.50;;;22.12;49.16
70343;BME280;57767;42.068;24.752;2023-08-12T03:36:02;99247.28;;;22.09;48.54
70343;BME280;57767;42.068;24.752;2023-08-12T03:37:04;99256.41;;;22.08;49.69
70343;BME280;57767;42.068;24.752;2023-08-12T03:38:06;99257.75;;;22.11;49.04
70343;BME280;57767;42.068;24.752;2023-08-12T03:39:08;99257.75;;;22.11;48.92
70343;BME280;57767;42.068;24.752;2023-08-12T03:40:10;99258.56;;;22.11;48.14
70343;BME280;57767;42.068;24.752;2023-08-12T03:41:12;99257.22;;;22.14;48.07
70343;BME280;57767;42.068;24.752;2023-08-12T03:42:14;99220.38;;;21.94;47.58
70343;BME280;57767;42.068;24.752;2023-08-12T03:43:18;99253.72;;;22.13;47.94
70343;BME280;57767;42.068;24.752;2023-08-12T03:44:20;99258.53;;;22.16;47.77
70343;BME280;57767;42.068;24.752;2023-08-12T03:45:21;99254.81;;;22.12;47.90
70343;BME280;57767;42.068;24.752;2023-08-12T03:46:23;99247.53;;;22.13;47.73
70343;BME280;57767;42.068;24.752;2023-08-12T03:47:25;99263.41;;;22.14;48.00
70343;BME280;57767;42.068;24.752;2023-08-12T03:48:27;99253.72;;;22.13;48.93
70343;BME280;57767;42.068;24.752;2023-08-12T03:49:29;99260.44;;;22.16;48.75
70343;BME280;57767;42.068;24.752;2023-08-12T03:50:36;99262.59;;;22.14;48.14
70343;BME280;57767;42.068;24.752;2023-08-12T03:51:39;99251.84;;;22.09;48.75
70343;BME280;57767;42.068;24.752;2023-08-12T03:52:40;99262.88;;;22.12;47.86
70343;BME280;57767;42.068;24.752;2023-08-12T03:53:42;99262.31;;;22.15;48.42
70343;BME280;57767;42.068;24.752;2023-08-12T03:54:44;99263.63;;;22.18;48.75
70343;BME280;57767;42.068;24.752;2023-08-12T03:55:46;99264.72;;;22.17;48.54
70343;BME280;57767;42.068;24.752;2023-08-12T03:56:48;99269.81;;;22.19;48.37
70343;BME280;57767;42.068;24.752;2023-08-12T03:57:49;99265.78;;;22.21;48.21
70343;BME280;57767;42.068;24.752;2023-08-12T03:58:51;99264.97;;;22.21;47.86
70343;BME280;57767;42.068;24.752;2023-08-12T03:59:53;99268.22;;;22.23;47.71
70343;BME280;57767;42.068;24.752;2023-08-12T04:00:55;99263.63;;;22.23;47.41
70343;BME280;57767;42.068;24.752;2023-08-12T04:01:57;99272.50;;;22.24;48.00
70343;BME280;57767;42.068;24.752;2023-08-12T04:02:59;99274.13;;;22.25;47.76
70343;BME280;57767;42.068;24.752;2023-08-12T04:04:01;99271.72;;;22.28;49.67
70343;BME280;57767;42.068;24.752;2023-08-12T04:05:02;99267.13;;;22.24;49.90
70343;BME280;57767;42.068;24.752;2023-08-12T04:06:04;99270.09;;;22.27;48.74
70343;BME280;57767;42.068;24.752;2023-08-12T04:07:06;99269.03;;;22.23;48.74
70343;BME280;57767;42.068;24.752;2023-08-12T04:08:08;99274.66;;;22.27;48.42
70343;BME280;57767;42.068;24.752;2023-08-12T04:09:10;99267.94;;;22.19;50.86
70343;BME280;57767;42.068;24.752;2023-08-12T04:10:12;99276.53;;;22.26;49.02
70343;BME280;57767;42.068;24.752;2023-08-12T04:11:13;99276.59;;;22.16;52.29
70343;BME280;57767;42.068;24.752;2023-08-12T04:12:15;99283.31;;;22.13;51.18
70343;BME280;57767;42.068;24.752;2023-08-12T04:13:17;99277.13;;;22.13;49.96
70343;BME280;57767;42.068;24.752;2023-08-12T04:14:19;99269.59;;;22.10;49.75
70343;BME280;57767;42.068;24.752;2023-08-12T04:15:21;99286.25;;;22.12;50.72
70343;BME280;57767;42.068;24.752;2023-08-12T04:16:23;99277.38;;;22.11;52.03
70343;BME280;57767;42.068;24.752;2023-08-12T04:17:25;99281.69;;;22.07;50.39
70343;BME280;57767;42.068;24.752;2023-08-12T04:18:27;99241.41;;;21.77;51.33
70343;BME280;57767;42.068;24.752;2023-08-12T04:19:28;99281.19;;;22.00;50.91
70343;BME280;57767;42.068;24.752;2023-08-12T04:20:30;99277.38;;;21.96;51.04
70343;BME280;57767;42.068;24.752;2023-08-12T04:21:32;99287.38;;;22.01;52.69
70343;BME280;57767;42.068;24.752;2023-08-12T04:22:34;99286.81;;;21.99;52.79
70343;BME280;57767;42.068;24.752;2023-08-12T04:23:36;99263.16;;;21.86;52.56
70343;BME280;57767;42.068;24.752;2023-08-12T04:24:37;99295.97;;;22.03;52.42
70343;BME280;57767;42.068;24.752;2023-08-12T04:25:39;99286.28;;;22.02;52.07
70343;BME280;57767;42.068;24.752;2023-08-12T04:26:41;99287.34;;;22.06;50.95
70343;BME280;57767;42.068;24.752;2023-08-12T04:27:43;99283.84;;;22.05;50.63
70343;BME280;57767;42.068;24.752;2023-08-12T04:28:44;99288.94;;;22.07;50.51
70343;BME280;57767;42.068;24.752;2023-08-12T04:29:46;99288.16;;;22.06;52.41
70343;BME280;57767;42.068;24.752;2023-08-12T04:30:48;99294.34;;;22.02;53.40
70343;BME280;57767;42.068;24.752;2023-08-12T04:31:52;99285.19;;;22.08;51.98
70343;BME280;57767;42.068;24.752;2023-08-12T04:32:54;99287.88;;;22.08;52.49
70343;BME280;57767;42.068;24.752;2023-08-12T04:33:56;99290.31;;;22.09;51.65
70343;BME280;57767;42.068;24.752;2023-08-12T04:34:58;99289.22;;;22.10;51.77
70343;BME280;57767;42.068;24.752;2023-08-12T04:35:59;99280.34;;;22.10;52.52
70343;BME280;57767;42.068;24.752;2023-08-12T04:37:01;99294.34;;;22.12;51.63
70343;BME280;57767;42.068;24.752;2023-08-12T04:38:04;99288.69;;;22.13;51.00
70343;BME280;57767;42.068;24.752;2023-08-12T04:39:05;99284.66;;;22.11;50.32
70343;BME280;57767;42.068;24.752;2023-08-12T04:40:08;99287.63;;;21.99;49.90
70343;BME280;57767;42.068;24.752;2023-08-12T04:41:10;99288.97;;;22.02;50.61
70343;BME280;57767;42.068;24.752;2023-08-12T04:42:12;99286.03;;;22.03;51.31
70343;BME280;57767;42.068;24.752;2023-08-12T04:43:13;99286.53;;;22.05;51.24
70343;BME280;57767;42.068;24.752;2023-08-12T04:44:15;99292.44;;;22.07;51.96
70343;BME280;57767;42.068;24.752;2023-08-12T04:45:17;99288.16;;;22.06;51.33
70343;BME280;57767;42.068;24.752;2023-08-12T04:46:19;99284.91;;;22.04;51.39
70343;BME280;57767;42.068;24.752;2023-08-12T04:47:21;99295.13;;;22.07;51.83
70343;BME280;57767;42.068;24.752;2023-08-12T04:48:23;99294.06;;;22.08;51.74
70343;BME280;57767;42.068;24.752;2023-08-12T04:49:24;99299.44;;;22.08;50.59
70343;BME280;57767;42.068;24.752;2023-08-12T04:50:31;99290.56;;;22.08;50.81
70343;BME280;57767;42.068;24.752;2023-08-12T04:51:33;99294.34;;;22.07;50.68
70343;BME280;57767;42.068;24.752;2023-08-12T04:52:35;99285.19;;;21.98;50.80
70343;BME280;57767;42.068;24.752;2023-08-12T04:53:37;99298.94;;;22.01;50.29
70343;BME280;57767;42.068;24.752;2023-08-12T04:54:39;99303.75;;;22.04;50.44
70343;BME280;57767;42.068;24.752;2023-08-12T04:55:40;99293.81;;;22.00;51.37
70343;BME280;57767;42.068;24.752;2023-08-12T04:56:44;99304.56;;;22.00;51.44
70343;BME280;57767;42.068;24.752;2023-08-12T04:57:46;99295.41;;;21.96;51.71
70343;BME280;57767;42.068;24.752;2023-08-12T04:58:50;99253.75;;;21.68;51.98
70343;BME280;57767;42.068;24.752;2023-08-12T04:59:53;99298.09;;;21.96;51.63
70343;BME280;57767;42.068;24.752;2023-08-12T05:00:56;99294.63;;;21.90;50.67
70343;BME280;57767;42.068;24.752;2023-08-12T05:01:58;99259.13;;;21.68;51.71
70343;BME280;57767;42.068;24.752;2023-08-12T05:03:05;99286.28;;;21.87;51.40
70343;BME280;57767;42.068;24.752;2023-08-12T05:04:07;99277.97;;;21.78;50.06
70343;BME280;57767;42.068;24.752;2023-08-12T05:05:09;99301.56;;;21.91;50.60
70343;BME280;57767;42.068;24.752;2023-08-12T05:06:11;99293.25;;;21.83;49.80
70343;BME280;57767;42.068;24.752;2023-08-12T05:07:13;99296.47;;;21.79;49.85
70343;BME280;57767;42.068;24.752;2023-08-12T05:08:15;99304.03;;;21.77;50.17
70343;BME280;57767;42.068;24.752;2023-08-12T05:09:17;99290.06;;;21.65;50.29
70343;BME280;57767;42.068;24.752;2023-08-12T05:10:19;99297.03;;;21.66;50.64
70343;BME280;57767;42.068;24.752;2023-08-12T05:11:21;99305.38;;;21.65;50.31
70343;BME280;57767;42.068;24.752;2023-08-12T05:12:23;99301.06;;;21.59;50.58
70343;BME280;57767;42.068;24.752;2023-08-12T05:13:24;99311.81;;;21.59;50.87
70343;BME280;57767;42.068;24.752;2023-08-12T05:14:26;99310.75;;;21.60;50.39
70343;BME280;57767;42.068;24.752;2023-08-12T05:15:28;99303.22;;;21.57;50.39
70343;BME280;57767;42.068;24.752;2023-08-12T05:16:30;99279.59;;;21.38;50.49
70343;BME280;57767;42.068;24.752;2023-08-12T05:17:32;99304.03;;;21.47;50.53
70343;BME280;57767;42.068;24.752;2023-08-12T05:18:33;99310.22;;;21.48;50.77
70343;BME280;57767;42.068;24.752;2023-08-12T05:19:35;99304.56;;;21.44;50.88
70343;BME280;57767;42.068;24.752;2023-08-12T05:20:37;99304.56;;;21.44;51.03
70343;BME280;57767;42.068;24.752;2023-08-12T05:21:40;99295.69;;;21.38;51.02
70343;BME280;57767;42.068;24.752;2023-08-12T05:22:42;99302.41;;;21.36;50.74
70343;BME280;57767;42.068;24.752;2023-08-12T05:23:44;99302.41;;;21.36;51.04
70343;BME280;57767;42.068;24.752;2023-08-12T05:24:45;99301.31;;;21.32;51.26
70343;BME280;57767;42.068;24.752;2023-08-12T05:25:47;99311.00;;;21.38;51.84
70343;BME280;57767;42.068;24.752;2023-08-12T05:27:03;99309.13;;;21.38;51.50
70343;BME280;57767;42.068;24.752;2023-08-12T05:28:05;99305.63;;;21.43;51.71
70343;BME280;57767;42.068;24.752;2023-08-12T05:29:07;99311.53;;;21.45;51.38
70343;BME280;57767;42.068;24.752;2023-08-12T05:30:09;99309.94;;;21.44;51.42
70343;BME280;57767;42.068;24.752;2023-08-12T05:31:11;99307.78;;;21.46;51.62